createdAt,value
2023-05-12T00:00:08.792Z,99.99
2023-05-12T00:01:08.700Z,99.99
2023-05-12T00:02:08.778Z,99.99
2023-05-12T00:03:08.860Z,99.99
2023-05-12T00:04:08.748Z,99.99
2023-05-12T00:05:08.467Z,99.99
2023-05-12T00:06:08.453Z,99.99
2023-05-12T00:07:08.438Z,99.99
2023-05-12T00:08:09.776Z,99.99
2023-05-12T00:09:08.226Z,99.99
2023-05-12T00:10:08.206Z,99.99
2023-05-12T00:11:08.133Z,99.99
2023-05-12T00:12:08.058Z,99.99
2023-05-12T00:13:08.015Z,99.99
2023-05-12T00:14:07.972Z,99.99
2023-05-12T00:15:07.895Z,99.99
2023-05-12T00:16:07.796Z,99.99
2023-05-12T00:17:07.720Z,99.99
2023-05-12T00:18:07.746Z,99.99
2023-05-12T00:19:07.642Z,99.99
2023-05-12T00:20:07.580Z,99.99
2023-05-12T00:21:07.444Z,99.99
2023-05-12T00:22:07.440Z,99.99
2023-05-12T00:23:07.413Z,99.99
2023-05-12T00:24:07.330Z,99.99
2023-05-12T00:25:07.277Z,99.99
2023-05-12T00:26:07.163Z,99.99
2023-05-12T00:27:07.107Z,99.99
2023-05-12T00:28:07.032Z,99.99
2023-05-12T00:29:06.990Z,99.99
2023-05-12T00:30:06.938Z,99.99
2023-05-12T00:31:06.900Z,99.99
2023-05-12T00:32:06.811Z,99.99
2023-05-12T00:33:06.980Z,99.70
2023-05-12T00:34:06.688Z,99.50
2023-05-12T00:35:06.624Z,98.99
2023-05-12T00:36:06.566Z,99.09
2023-05-12T00:37:06.495Z,99.09
2023-05-12T00:38:06.491Z,99.50
2023-05-12T00:39:06.430Z,99.50
2023-05-12T00:40:06.315Z,99.50
2023-05-12T00:41:06.245Z,99.70
2023-05-12T00:42:06.182Z,99.70
2023-05-12T00:43:06.148Z,99.60
2023-05-12T00:44:06.043Z,99.50
2023-05-12T00:45:05.971Z,99.70
2023-05-12T00:46:05.930Z,99.80
2023-05-12T00:47:05.844Z,99.99
2023-05-12T00:48:05.811Z,99.99
2023-05-12T00:49:05.809Z,99.99
2023-05-12T00:50:05.650Z,99.91
2023-05-12T00:51:05.581Z,98.99
2023-05-12T00:52:05.710Z,98.07
2023-05-12T00:53:05.494Z,97.66
2023-05-12T00:54:05.399Z,97.36
2023-05-12T00:55:05.369Z,97.56
2023-05-12T00:56:05.285Z,97.46
2023-05-12T00:57:05.253Z,97.16
2023-05-12T00:58:05.174Z,97.05
2023-05-12T00:59:05.084Z,97.56
2023-05-12T01:00:05.228Z,97.87
2023-05-12T01:01:05.051Z,97.56
2023-05-12T01:02:04.948Z,97.25
2023-05-12T01:03:05.940Z,97.16
2023-05-12T01:04:04.815Z,97.46
2023-05-12T01:05:04.789Z,97.46
2023-05-12T01:06:04.650Z,97.56
2023-05-12T01:07:04.614Z,97.25
2023-05-12T01:08:04.586Z,97.25
2023-05-12T01:09:04.452Z,97.05
2023-05-12T01:10:04.481Z,96.64
2023-05-12T01:11:04.320Z,96.44
2023-05-12T01:12:04.277Z,96.14
2023-05-12T01:13:04.211Z,95.52
2023-05-12T01:14:04.204Z,95.73
2023-05-12T01:15:04.067Z,95.32
2023-05-12T01:16:04.055Z,95.42
2023-05-12T01:17:04.039Z,95.62
2023-05-12T01:18:03.956Z,96.34
2023-05-12T01:19:03.915Z,95.73
2023-05-12T01:20:03.803Z,94.60
2023-05-12T01:21:03.733Z,94.40
2023-05-12T01:22:03.669Z,94.20
2023-05-12T01:23:03.593Z,94.81
2023-05-12T01:24:03.574Z,95.12
2023-05-12T01:25:03.467Z,95.52
2023-05-12T01:26:03.426Z,96.14
2023-05-12T01:27:03.339Z,96.14
2023-05-12T01:28:03.351Z,95.73
2023-05-12T01:29:03.180Z,95.52
2023-05-12T01:30:03.129Z,95.52
2023-05-12T01:31:03.200Z,95.42
2023-05-12T01:32:03.059Z,95.12
2023-05-12T01:33:03.046Z,95.83
2023-05-12T01:34:02.964Z,95.83
2023-05-12T01:35:02.875Z,95.62
2023-05-12T01:36:02.802Z,95.32
2023-05-12T01:37:03.307Z,94.20
2023-05-12T01:38:02.638Z,95.21
2023-05-12T01:39:02.609Z,94.09
2023-05-12T01:40:02.591Z,93.18
2023-05-12T01:41:02.522Z,92.97
2023-05-12T01:42:02.381Z,92.97
2023-05-12T01:43:02.325Z,94.30
2023-05-12T01:44:02.262Z,94.71
2023-05-12T01:45:02.202Z,95.12
2023-05-12T01:46:02.140Z,96.03
2023-05-12T01:47:02.138Z,96.34
2023-05-12T01:48:02.048Z,96.14
2023-05-12T01:49:01.955Z,95.83
2023-05-12T01:50:01.951Z,95.62
2023-05-12T01:51:01.856Z,96.34
2023-05-12T01:52:01.862Z,96.34
2023-05-12T01:53:01.698Z,97.46
2023-05-12T01:54:01.661Z,97.16
2023-05-12T01:55:01.592Z,96.54
2023-05-12T01:56:01.542Z,95.57
2023-05-12T01:57:02.227Z,95.36
2023-05-12T01:58:01.446Z,96.23
2023-05-12T01:59:01.301Z,96.18
2023-05-12T02:00:01.304Z,96.48
2023-05-12T02:01:01.177Z,96.38
2023-05-12T02:02:01.145Z,96.08
2023-05-12T02:03:02.033Z,96.89
2023-05-12T02:04:01.096Z,96.48
2023-05-12T02:05:00.933Z,96.69
2023-05-12T02:06:00.943Z,97.61
2023-05-12T02:07:00.814Z,97.61
2023-05-12T02:08:00.740Z,97.40
2023-05-12T02:09:00.712Z,96.69
2023-05-12T02:10:00.662Z,96.38
2023-05-12T02:11:00.551Z,97.30
2023-05-12T02:12:00.470Z,96.48
2023-05-12T02:13:00.460Z,95.77
2023-05-12T02:14:00.451Z,95.77
2023-05-12T02:15:00.335Z,96.18
2023-05-12T02:16:00.359Z,95.87
2023-05-12T02:17:00.204Z,96.18
2023-05-12T02:18:00.180Z,96.79
2023-05-12T02:19:00.187Z,97.04
2023-05-12T02:20:00.045Z,97.14
2023-05-12T02:20:59.919Z,97.14
2023-05-12T02:21:59.894Z,97.34
2023-05-12T02:22:59.834Z,97.96
2023-05-12T02:23:59.875Z,97.45
2023-05-12T02:24:59.746Z,97.14
2023-05-12T02:25:59.621Z,97.34
2023-05-12T02:26:59.541Z,97.14
2023-05-12T02:27:59.525Z,97.55
2023-05-12T02:28:59.430Z,97.65
2023-05-12T02:29:59.407Z,97.65
2023-05-12T02:30:59.361Z,97.86
2023-05-12T02:31:59.263Z,98.06
2023-05-12T02:32:59.211Z,97.96
2023-05-12T02:33:59.157Z,97.75
2023-05-12T02:34:59.080Z,97.55
2023-05-12T02:35:59.031Z,97.45
2023-05-12T02:36:58.921Z,97.65
2023-05-12T02:37:59.769Z,97.34
2023-05-12T02:38:58.828Z,98.16
2023-05-12T02:39:58.817Z,98.27
2023-05-12T02:40:58.758Z,98.16
2023-05-12T02:41:58.642Z,98.16
2023-05-12T02:42:59.472Z,98.36
2023-05-12T02:43:58.526Z,98.16
2023-05-12T02:45:00.427Z,97.86
2023-05-12T02:45:59.020Z,98.16
2023-05-12T02:46:58.979Z,98.47
2023-05-12T02:47:59.020Z,98.47
2023-05-12T02:48:58.280Z,98.36
2023-05-12T02:49:58.172Z,98.36
2023-05-12T02:50:58.080Z,98.57
2023-05-12T02:51:58.064Z,98.27
2023-05-12T02:52:58.507Z,98.06
2023-05-12T02:53:57.880Z,97.96
2023-05-12T02:54:58.476Z,97.86
2023-05-12T02:55:57.718Z,97.86
2023-05-12T02:56:57.771Z,97.90
2023-05-12T02:57:58.987Z,97.96
2023-05-12T02:58:57.640Z,98.11
2023-05-12T02:59:57.527Z,98.21
2023-05-12T03:01:09.394Z,98.41
2023-05-12T03:01:57.536Z,98.88
2023-05-12T03:02:57.462Z,98.88
2023-05-12T03:03:57.273Z,98.77
2023-05-12T03:04:57.230Z,98.61
2023-05-12T03:05:57.159Z,98.72
2023-05-12T03:06:57.160Z,98.93
2023-05-12T03:07:56.987Z,98.72
2023-05-12T03:08:57.498Z,99.13
2023-05-12T03:09:56.854Z,99.39
2023-05-12T03:10:57.480Z,99.39
2023-05-12T03:11:56.799Z,99.18
2023-05-12T03:12:56.684Z,99.08
2023-05-12T03:13:57.272Z,98.93
2023-05-12T03:14:56.489Z,98.72
2023-05-12T03:15:56.457Z,98.72
2023-05-12T03:16:56.970Z,98.52
2023-05-12T03:17:56.424Z,98.61
2023-05-12T03:18:56.292Z,98.82
2023-05-12T03:19:56.240Z,98.72
2023-05-12T03:20:56.146Z,98.93
2023-05-12T03:21:56.143Z,99.02
2023-05-12T03:22:56.102Z,99.13
2023-05-12T03:23:55.930Z,99.08
2023-05-12T03:24:55.886Z,99.29
2023-05-12T03:25:55.961Z,99.59
2023-05-12T03:26:55.763Z,99.39
2023-05-12T03:27:55.736Z,99.23
2023-05-12T03:28:55.595Z,99.13
2023-05-12T03:29:55.602Z,99.13
2023-05-12T03:30:56.307Z,98.93
2023-05-12T03:31:55.504Z,98.72
2023-05-12T03:32:55.425Z,98.72
2023-05-12T03:33:55.316Z,98.72
2023-05-12T03:34:55.219Z,98.72
2023-05-12T03:35:55.201Z,98.72
2023-05-12T03:36:55.152Z,98.93
2023-05-12T03:37:55.130Z,99.02
2023-05-12T03:38:55.004Z,99.02
2023-05-12T03:39:55.719Z,99.13
2023-05-12T03:40:54.877Z,99.02
2023-05-12T03:41:54.860Z,99.13
2023-05-12T03:42:54.750Z,99.43
2023-05-12T03:43:54.850Z,99.54
2023-05-12T03:44:55.458Z,99.43
2023-05-12T03:45:54.652Z,99.54
2023-05-12T03:46:54.565Z,99.64
2023-05-12T03:47:55.252Z,99.64
2023-05-12T03:48:54.347Z,99.74
2023-05-12T03:49:55.265Z,99.64
2023-05-12T03:50:54.257Z,99.64
2023-05-12T03:51:54.188Z,99.64
2023-05-12T03:52:54.107Z,99.64
2023-05-12T03:53:54.118Z,99.84
2023-05-12T03:54:53.975Z,99.95
2023-05-12T03:55:53.925Z,99.95
2023-05-12T03:56:53.846Z,99.95
2023-05-12T03:57:53.787Z,99.99
2023-05-12T03:58:53.756Z,99.95
2023-05-12T03:59:53.722Z,99.99
2023-05-12T04:00:53.628Z,99.99
2023-05-12T04:01:54.305Z,99.99
2023-05-12T04:02:53.576Z,99.95
2023-05-12T04:03:53.623Z,99.99
2023-05-12T04:04:53.324Z,99.95
2023-05-12T04:05:53.271Z,99.84
2023-05-12T04:06:53.285Z,99.84
2023-05-12T04:07:53.157Z,99.99
2023-05-12T04:08:53.075Z,99.99
2023-05-12T04:09:53.160Z,99.99
2023-05-12T04:10:52.998Z,99.99
2023-05-12T04:11:52.910Z,99.95
2023-05-12T04:12:52.851Z,99.95
2023-05-12T04:13:52.813Z,99.74
2023-05-12T04:14:52.728Z,99.95
2023-05-12T04:15:53.459Z,99.74
2023-05-12T04:16:52.717Z,99.64
2023-05-12T04:17:52.617Z,99.64
2023-05-12T04:18:52.521Z,99.84
2023-05-12T04:19:52.473Z,99.84
2023-05-12T04:20:52.340Z,99.95
2023-05-12T04:21:52.291Z,99.99
2023-05-12T04:22:52.213Z,99.99
2023-05-12T04:23:52.184Z,99.99
2023-05-12T04:24:52.115Z,99.99
2023-05-12T04:25:52.037Z,99.99
2023-05-12T04:26:51.970Z,99.99
2023-05-12T04:27:52.795Z,99.99
2023-05-12T04:28:51.907Z,99.99
2023-05-12T04:29:51.812Z,99.99
2023-05-12T04:30:51.689Z,99.99
2023-05-12T04:31:51.695Z,99.99
2023-05-12T04:32:51.645Z,99.99
2023-05-12T04:33:51.533Z,99.79
2023-05-12T04:34:51.514Z,99.49
2023-05-12T04:35:51.395Z,99.39
2023-05-12T04:36:51.343Z,99.39
2023-05-12T04:37:51.309Z,99.59
2023-05-12T04:38:51.254Z,99.39
2023-05-12T04:39:51.159Z,99.39
2023-05-12T04:40:51.117Z,99.29
2023-05-12T04:41:51.056Z,99.29
2023-05-12T04:42:51.758Z,99.34
2023-05-12T04:44:50.917Z,99.75
2023-05-12T04:45:50.888Z,99.85
2023-05-12T04:46:50.743Z,99.70
2023-05-12T04:47:50.650Z,99.60
2023-05-12T04:48:50.676Z,99.60
2023-05-12T04:49:50.567Z,99.40
2023-05-12T04:50:50.488Z,99.09
2023-05-12T04:51:50.438Z,98.74
2023-05-12T04:52:50.351Z,98.74
2023-05-12T04:53:50.351Z,98.64
2023-05-12T04:54:50.239Z,98.54
2023-05-12T04:55:50.187Z,98.43
2023-05-12T04:56:50.150Z,98.08
2023-05-12T04:57:50.005Z,97.78
2023-05-12T04:58:50.060Z,97.47
2023-05-12T04:59:49.956Z,97.47
2023-05-12T05:00:49.832Z,97.27
2023-05-12T05:01:49.800Z,97.02
2023-05-12T05:02:49.796Z,96.92
2023-05-12T05:03:49.773Z,96.61
2023-05-12T05:04:49.641Z,96.61
2023-05-12T05:05:49.526Z,96.81
2023-05-12T05:06:49.453Z,96.46
2023-05-12T05:07:49.451Z,96.36
2023-05-12T05:08:49.362Z,96.36
2023-05-12T05:09:49.357Z,95.85
2023-05-12T05:10:49.207Z,95.34
2023-05-12T05:11:49.146Z,95.65
2023-05-12T05:12:49.072Z,95.65
2023-05-12T05:13:49.234Z,95.45
2023-05-12T05:14:49.021Z,95.14
2023-05-12T05:15:49.468Z,95.34
2023-05-12T05:16:48.825Z,95.34
2023-05-12T05:17:48.841Z,95.65
2023-05-12T05:18:48.739Z,95.85
2023-05-12T05:19:57.259Z,95.65
2023-05-12T05:20:57.377Z,95.54
2023-05-12T05:21:49.246Z,95.14
2023-05-12T05:22:48.505Z,94.63
2023-05-12T05:23:48.407Z,94.84
2023-05-12T05:24:48.373Z,94.73
2023-05-12T05:25:48.341Z,95.04
2023-05-12T05:26:48.193Z,95.24
2023-05-12T05:27:48.989Z,94.93
2023-05-12T05:28:48.060Z,95.24
2023-05-12T05:29:48.053Z,94.23
2023-05-12T05:30:48.125Z,94.08
2023-05-12T05:31:48.035Z,94.44
2023-05-12T05:32:48.478Z,94.04
2023-05-12T05:33:48.599Z,94.45
2023-05-12T05:34:47.724Z,93.15
2023-05-12T05:35:47.653Z,92.40
2023-05-12T05:36:47.580Z,90.67
2023-05-12T05:37:47.592Z,90.88
2023-05-12T05:38:47.477Z,89.92
2023-05-12T05:39:47.395Z,88.51
2023-05-12T05:40:53.752Z,87.34
2023-05-12T05:41:47.319Z,86.63
2023-05-12T05:42:47.238Z,86.47
2023-05-12T05:43:47.155Z,87.08
2023-05-12T05:44:47.084Z,88.62
2023-05-12T05:45:47.022Z,86.82
2023-05-12T05:46:47.022Z,85.31
2023-05-12T05:47:46.966Z,84.67
2023-05-12T05:48:46.961Z,83.28
2023-05-12T05:49:46.880Z,82.33
2023-05-12T05:50:47.457Z,81.28
2023-05-12T05:51:46.839Z,78.32
2023-05-12T05:52:46.665Z,76.91
2023-05-12T05:53:46.538Z,77.45
2023-05-12T05:54:46.531Z,79.17
2023-05-12T05:55:46.380Z,79.82
2023-05-12T05:56:46.373Z,80.50
2023-05-12T05:57:46.310Z,82.16
2023-05-12T05:58:46.287Z,82.40
2023-05-12T05:59:46.147Z,82.20
2023-05-12T06:00:46.128Z,82.81
2023-05-12T06:01:46.347Z,82.97
2023-05-12T06:02:46.094Z,84.59
2023-05-12T06:03:46.027Z,84.33
2023-05-12T06:04:46.144Z,84.39
2023-05-12T06:05:45.781Z,83.74
2023-05-12T06:06:45.804Z,83.70
2023-05-12T06:07:45.726Z,82.18
2023-05-12T06:08:45.650Z,81.98
2023-05-12T06:09:45.508Z,80.83
2023-05-12T06:10:45.643Z,81.11
2023-05-12T06:11:45.411Z,81.59
2023-05-12T06:12:45.390Z,82.75
2023-05-12T06:13:45.334Z,83.29
2023-05-12T06:14:45.237Z,84.30
2023-05-12T06:15:45.184Z,86.22
2023-05-12T06:16:45.148Z,86.13
2023-05-12T06:17:45.114Z,86.53
2023-05-12T06:18:45.168Z,83.73
2023-05-12T06:19:44.946Z,82.82
2023-05-12T06:20:44.872Z,84.64
2023-05-12T06:21:44.807Z,83.33
2023-05-12T06:22:44.715Z,85.30
2023-05-12T06:23:44.789Z,85.94
2023-05-12T06:24:44.607Z,85.53
2023-05-12T06:25:44.546Z,86.39
2023-05-12T06:26:45.453Z,86.90
2023-05-12T06:27:44.405Z,87.61
2023-05-12T06:28:44.405Z,86.39
2023-05-12T06:29:44.304Z,87.00
2023-05-12T06:30:44.959Z,85.88
2023-05-12T06:31:44.239Z,87.92
2023-05-12T06:32:44.125Z,88.78
2023-05-12T06:33:44.035Z,88.58
2023-05-12T06:34:44.012Z,88.28
2023-05-12T06:35:43.907Z,88.03
2023-05-12T06:36:43.910Z,87.93
2023-05-12T06:37:43.822Z,87.22
2023-05-12T06:38:43.765Z,87.12
2023-05-12T06:39:44.260Z,85.90
2023-05-12T06:40:43.683Z,86.88
2023-05-12T06:41:43.622Z,86.55
2023-05-12T06:42:43.471Z,83.29
2023-05-12T06:43:43.501Z,81.13
2023-05-12T06:44:43.384Z,80.57
2023-05-12T06:45:44.735Z,80.19
2023-05-12T06:46:43.320Z,80.35
2023-05-12T06:47:43.346Z,80.21
2023-05-12T06:48:43.158Z,77.08
2023-05-12T06:49:43.132Z,73.14
2023-05-12T06:50:43.041Z,74.82
2023-05-12T06:51:42.912Z,75.26
2023-05-12T06:52:42.930Z,76.40
2023-05-12T06:53:43.021Z,77.45
2023-05-12T06:54:42.706Z,78.74
2023-05-12T06:55:42.758Z,78.06
2023-05-12T06:56:42.637Z,79.21
2023-05-12T06:57:42.583Z,79.41
2023-05-12T06:58:42.490Z,80.22
2023-05-12T06:59:42.602Z,78.91
2023-05-12T07:00:42.352Z,78.34
2023-05-12T07:01:42.430Z,78.75
2023-05-12T07:02:42.276Z,79.19
2023-05-12T07:03:42.212Z,80.60
2023-05-12T07:04:42.157Z,79.19
2023-05-12T07:05:42.125Z,81.85
2023-05-12T07:06:42.735Z,82.76
2023-05-12T07:07:41.984Z,83.47
2023-05-12T07:08:41.896Z,81.96
2023-05-12T07:09:41.840Z,80.64
2023-05-12T07:10:42.955Z,81.11
2023-05-12T07:11:41.712Z,81.11
2023-05-12T07:12:41.728Z,80.63
2023-05-12T07:13:41.589Z,78.06
2023-05-12T07:14:41.523Z,77.69
2023-05-12T07:15:42.379Z,77.25
2023-05-12T07:16:41.387Z,76.00
2023-05-12T07:17:41.378Z,74.55
2023-05-12T07:18:41.547Z,73.95
2023-05-12T07:19:41.168Z,73.55
2023-05-12T07:20:41.200Z,72.17
2023-05-12T07:21:41.859Z,71.16
2023-05-12T07:22:41.816Z,71.20
2023-05-12T07:23:41.107Z,70.46
2023-05-12T07:24:43.117Z,69.46
2023-05-12T07:25:42.022Z,69.62
2023-05-12T07:26:40.803Z,69.45
2023-05-12T07:27:40.696Z,69.29
2023-05-12T07:28:41.584Z,70.16
2023-05-12T07:29:41.059Z,69.76
2023-05-12T07:30:42.955Z,72.91
2023-05-12T07:31:42.178Z,71.60
2023-05-12T07:32:44.442Z,71.13
2023-05-12T07:33:48.041Z,69.89
2023-05-12T07:34:41.032Z,71.44
2023-05-12T07:35:40.349Z,74.32
2023-05-12T07:36:40.912Z,74.69
2023-05-12T07:37:40.946Z,73.85
2023-05-12T07:38:41.086Z,71.00
2023-05-12T07:39:39.935Z,68.41
2023-05-12T07:40:39.900Z,68.88
2023-05-12T07:41:39.951Z,69.46
2023-05-12T07:42:40.436Z,70.26
2023-05-12T07:43:42.023Z,63.81
2023-05-12T07:44:39.739Z,62.61
2023-05-12T07:45:39.622Z,62.31
2023-05-12T07:46:40.969Z,64.22
2023-05-12T07:47:39.594Z,66.85
2023-05-12T07:48:39.444Z,67.35
2023-05-12T07:49:40.289Z,66.25
2023-05-12T07:50:39.445Z,65.02
2023-05-12T07:51:39.255Z,62.62
2023-05-12T07:52:39.148Z,61.09
2023-05-12T07:53:39.959Z,61.59
2023-05-12T07:54:39.035Z,59.69
2023-05-12T07:55:39.003Z,62.79
2023-05-12T07:56:39.002Z,62.79
2023-05-12T07:57:38.924Z,61.19
2023-05-12T07:58:38.849Z,58.62
2023-05-12T07:59:38.758Z,61.05
2023-05-12T08:00:38.731Z,61.75
2023-05-12T08:01:38.754Z,62.81
2023-05-12T08:02:38.680Z,62.64
2023-05-12T08:03:38.615Z,62.07
2023-05-12T08:04:38.454Z,62.80
2023-05-12T08:05:38.433Z,62.90
2023-05-12T08:06:38.306Z,63.81
2023-05-12T08:07:38.252Z,63.73
2023-05-12T08:08:38.255Z,63.33
2023-05-12T08:09:38.152Z,65.14
2023-05-12T08:10:38.150Z,67.28
2023-05-12T08:11:38.050Z,64.67
2023-05-12T08:12:37.974Z,64.27
2023-05-12T08:13:37.910Z,64.40
2023-05-12T08:14:37.913Z,66.71
2023-05-12T08:15:37.782Z,68.02
2023-05-12T08:16:37.806Z,65.80
2023-05-12T08:17:37.664Z,67.82
2023-05-12T08:18:37.732Z,65.30
2023-05-12T08:19:37.851Z,65.10
2023-05-12T08:20:37.444Z,65.44
2023-05-12T08:21:37.416Z,66.34
2023-05-12T08:22:37.391Z,65.94
2023-05-12T08:23:37.330Z,64.93
2023-05-12T08:24:37.225Z,65.73
2023-05-12T08:25:37.193Z,65.84
2023-05-12T08:26:37.122Z,66.24
2023-05-12T08:27:37.089Z,66.03
2023-05-12T08:28:37.021Z,66.03
2023-05-12T08:29:36.932Z,65.20
2023-05-12T08:30:37.518Z,64.97
2023-05-12T08:31:36.896Z,63.33
2023-05-12T08:32:36.892Z,63.33
2023-05-12T08:33:36.730Z,64.97
2023-05-12T08:34:36.576Z,65.17
2023-05-12T08:35:36.510Z,65.60
2023-05-12T08:36:36.485Z,65.91
2023-05-12T08:37:36.417Z,65.10
2023-05-12T08:38:36.422Z,65.67
2023-05-12T08:39:36.382Z,65.14
2023-05-12T08:40:36.751Z,64.11
2023-05-12T08:41:36.217Z,64.71
2023-05-12T08:42:36.108Z,64.58
2023-05-12T08:43:36.049Z,64.45
2023-05-12T08:44:36.101Z,66.62
2023-05-12T08:45:35.963Z,63.51
2023-05-12T08:46:36.002Z,63.48
2023-05-12T08:47:35.859Z,63.48
2023-05-12T08:48:35.783Z,65.05
2023-05-12T08:49:35.711Z,65.75
2023-05-12T08:50:35.676Z,62.98
2023-05-12T08:51:35.603Z,62.21
2023-05-12T08:52:35.478Z,62.71
2023-05-12T08:53:35.444Z,59.06
2023-05-12T08:54:42.373Z,60.47
2023-05-12T08:55:36.236Z,58.89
2023-05-12T08:57:36.053Z,59.72
2023-05-12T08:58:41.710Z,60.75
2023-05-12T08:59:35.103Z,60.25
2023-05-12T09:00:35.053Z,61.05
2023-05-12T09:01:36.757Z,59.05
2023-05-12T09:02:48.350Z,59.82
2023-05-12T09:03:34.937Z,62.13
2023-05-12T09:04:34.872Z,59.62
2023-05-12T09:05:35.460Z,59.62
2023-05-12T09:06:35.027Z,58.72
2023-05-12T09:07:34.638Z,59.82
2023-05-12T09:08:34.558Z,60.72
2023-05-12T09:09:34.533Z,61.13
2023-05-12T09:10:35.739Z,59.92
2023-05-12T09:11:34.501Z,61.22
2023-05-12T09:12:34.322Z,63.64
2023-05-12T09:13:34.258Z,63.84
2023-05-12T09:14:37.411Z,61.93
2023-05-12T09:15:34.091Z,60.69
2023-05-12T09:16:34.239Z,61.10
2023-05-12T09:17:33.998Z,64.11
2023-05-12T09:18:33.966Z,61.67
2023-05-12T09:19:33.930Z,60.06
2023-05-12T09:20:34.919Z,61.34
2023-05-12T09:21:33.984Z,61.94
2023-05-12T09:22:33.697Z,60.84
2023-05-12T09:23:34.251Z,61.67
2023-05-12T09:24:33.694Z,60.47
2023-05-12T09:25:33.519Z,62.67
2023-05-12T09:26:33.460Z,61.04
2023-05-12T09:27:33.425Z,62.31
2023-05-12T09:28:33.315Z,61.31
2023-05-12T09:29:37.536Z,63.51
2023-05-12T09:30:33.217Z,60.28
2023-05-12T09:31:33.225Z,58.22
2023-05-12T09:32:33.353Z,58.12
2023-05-12T09:33:33.042Z,61.29
2023-05-12T09:34:32.977Z,57.37
2023-05-12T09:35:32.976Z,60.03
2023-05-12T09:36:32.831Z,56.01
2023-05-12T09:37:32.798Z,54.59
2023-05-12T09:38:32.745Z,55.29
2023-05-12T09:39:32.714Z,57.18
2023-05-12T09:40:32.618Z,57.58
2023-05-12T09:41:32.567Z,54.39
2023-05-12T09:42:32.497Z,53.92
2023-05-12T09:43:32.505Z,56.57
2023-05-12T09:44:32.339Z,56.27
2023-05-12T09:45:32.377Z,55.89
2023-05-12T09:46:32.323Z,54.79
2023-05-12T09:47:32.215Z,56.70
2023-05-12T09:48:33.020Z,53.57
2023-05-12T09:49:32.093Z,54.34
2023-05-12T09:50:44.209Z,52.94
2023-05-12T09:51:32.000Z,54.61
2023-05-12T09:52:33.414Z,50.92
2023-05-12T09:53:33.498Z,51.42
2023-05-12T09:54:31.879Z,52.29
2023-05-12T09:55:31.802Z,49.60
2023-05-12T09:56:31.660Z,50.97
2023-05-12T09:57:31.603Z,50.17
2023-05-12T09:58:31.629Z,50.47
2023-05-12T09:59:32.417Z,52.17
2023-05-12T10:00:43.388Z,52.37
2023-05-12T10:01:31.344Z,50.00
2023-05-12T10:02:31.455Z,50.42
2023-05-12T10:03:31.768Z,51.92
2023-05-12T10:04:31.263Z,53.34
2023-05-12T10:05:31.947Z,52.55
2023-05-12T10:06:31.109Z,52.94
2023-05-12T10:07:30.998Z,52.14
2023-05-12T10:08:31.446Z,52.04
2023-05-12T10:09:30.857Z,52.94
2023-05-12T10:10:30.857Z,53.64
2023-05-12T10:11:30.749Z,52.55
2023-05-12T10:12:30.702Z,52.94
2023-05-12T10:13:30.717Z,53.34
2023-05-12T10:14:30.630Z,52.84
2023-05-12T10:15:30.547Z,53.44
2023-05-12T10:16:30.537Z,53.14
2023-05-12T10:17:30.538Z,52.64
2023-05-12T10:18:30.349Z,51.64
2023-05-12T10:19:30.295Z,52.02
2023-05-12T10:20:30.966Z,53.52
2023-05-12T10:21:30.973Z,53.52
2023-05-12T10:22:30.980Z,50.74
2023-05-12T10:23:30.030Z,52.12
2023-05-12T10:24:31.466Z,52.32
2023-05-12T10:25:29.964Z,52.12
2023-05-12T10:26:29.835Z,50.42
2023-05-12T10:27:29.792Z,51.20
2023-05-12T10:28:30.260Z,51.50
2023-05-12T10:29:30.694Z,50.42
2023-05-12T10:30:29.698Z,52.82
2023-05-12T10:31:29.696Z,52.34
2023-05-12T10:32:30.488Z,54.06
2023-05-12T10:33:29.446Z,54.17
2023-05-12T10:34:29.559Z,53.79
2023-05-12T10:35:29.313Z,51.89
2023-05-12T10:36:29.287Z,53.12
2023-05-12T10:37:29.369Z,53.42
2023-05-12T10:38:29.989Z,54.05
2023-05-12T10:39:29.106Z,53.89
2023-05-12T10:40:28.983Z,55.02
2023-05-12T10:41:29.778Z,56.96
2023-05-12T10:42:28.935Z,56.76
2023-05-12T10:43:28.794Z,56.98
2023-05-12T10:44:28.750Z,57.39
2023-05-12T10:45:29.915Z,58.39
2023-05-12T10:46:30.411Z,57.89
2023-05-12T10:47:28.580Z,57.98
2023-05-12T10:48:28.545Z,58.59
2023-05-12T10:49:29.995Z,58.18
2023-05-12T10:50:28.992Z,56.58
2023-05-12T10:51:28.300Z,56.98
2023-05-12T10:52:29.116Z,57.18
2023-05-12T10:53:38.057Z,58.29
2023-05-12T10:54:28.225Z,58.79
2023-05-12T10:55:28.193Z,57.68
2023-05-12T10:56:28.399Z,57.39
2023-05-12T10:57:29.396Z,57.59
2023-05-12T10:58:29.317Z,57.08
2023-05-12T10:59:28.111Z,57.08
2023-05-12T11:00:28.564Z,57.18
2023-05-12T11:01:27.903Z,56.61
2023-05-12T11:02:28.178Z,57.61
2023-05-12T11:03:28.904Z,59.42
2023-05-12T11:04:27.684Z,57.31
2023-05-12T11:05:27.860Z,58.62
2023-05-12T11:06:27.727Z,57.61
2023-05-12T11:07:27.646Z,57.91
2023-05-12T11:08:28.375Z,57.64
2023-05-12T11:09:27.495Z,58.24
2023-05-12T11:10:27.355Z,58.22
2023-05-12T11:11:27.838Z,59.52
2023-05-12T11:12:27.068Z,57.71
2023-05-12T11:13:26.997Z,58.81
2023-05-12T11:14:26.976Z,58.42
2023-05-12T11:15:27.075Z,59.01
2023-05-12T11:16:26.912Z,57.71
2023-05-12T11:17:27.454Z,59.22
2023-05-12T11:18:26.751Z,57.91
2023-05-12T11:19:26.726Z,58.11
2023-05-12T11:20:28.784Z,58.62
2023-05-12T11:21:26.622Z,58.01
2023-05-12T11:22:28.039Z,56.88
2023-05-12T11:23:26.439Z,57.18
2023-05-12T11:24:26.312Z,57.18
2023-05-12T11:25:26.349Z,57.39
2023-05-12T11:26:27.037Z,57.68
2023-05-12T11:27:27.454Z,59.09
2023-05-12T11:28:26.126Z,58.09
2023-05-12T11:29:26.029Z,58.69
2023-05-12T11:30:25.989Z,58.89
2023-05-12T11:31:26.123Z,57.48
2023-05-12T11:32:26.037Z,56.18
2023-05-12T11:33:25.800Z,54.97
2023-05-12T11:34:26.473Z,56.78
2023-05-12T11:35:26.498Z,56.98
2023-05-12T11:36:25.589Z,56.78
2023-05-12T11:37:25.612Z,56.58
2023-05-12T11:38:25.435Z,55.28
2023-05-12T11:39:26.253Z,54.27
2023-05-12T11:40:25.404Z,54.88
2023-05-12T11:41:25.964Z,55.58
2023-05-12T11:42:25.993Z,54.17
2023-05-12T11:43:25.198Z,54.75
2023-05-12T11:44:25.116Z,55.05
2023-05-12T11:45:25.035Z,53.75
2023-05-12T11:46:25.077Z,53.95
2023-05-12T11:47:24.977Z,53.45
2023-05-12T11:48:24.876Z,54.32
2023-05-12T11:49:24.859Z,54.93
2023-05-12T11:50:24.778Z,53.82
2023-05-12T11:51:24.650Z,52.92
2023-05-12T11:52:24.656Z,54.62
2023-05-12T11:53:25.200Z,54.52
2023-05-12T11:54:24.765Z,53.92
2023-05-12T11:55:24.505Z,53.62
2023-05-12T11:56:24.949Z,54.32
2023-05-12T11:57:24.295Z,54.22
2023-05-12T11:58:24.266Z,52.92
2023-05-12T11:59:24.181Z,52.82
2023-05-12T12:00:24.149Z,53.02
2023-05-12T12:01:24.064Z,53.32
2023-05-12T12:02:24.093Z,54.10
2023-05-12T12:03:24.069Z,54.39
2023-05-12T12:04:23.888Z,50.71
2023-05-12T12:05:23.915Z,49.31
2023-05-12T12:06:23.811Z,50.31
2023-05-12T12:07:23.859Z,50.31
2023-05-12T12:08:23.652Z,49.61
2023-05-12T12:09:23.571Z,49.71
2023-05-12T12:10:23.575Z,48.61
2023-05-12T12:11:23.455Z,49.31
2023-05-12T12:12:23.472Z,49.61
2023-05-12T12:13:23.345Z,48.91
2023-05-12T12:14:23.278Z,49.41
2023-05-12T12:15:23.281Z,49.11
2023-05-12T12:16:23.223Z,48.31
2023-05-12T12:17:23.081Z,47.61
2023-05-12T12:18:23.210Z,47.31
2023-05-12T12:19:23.004Z,44.80
2023-05-12T12:20:23.513Z,45.90
2023-05-12T12:21:22.967Z,47.20
2023-05-12T12:22:22.776Z,47.13
2023-05-12T12:23:23.976Z,47.03
2023-05-12T12:24:22.714Z,48.23
2023-05-12T12:25:22.737Z,48.13
2023-05-12T12:26:22.601Z,45.72
2023-05-12T12:27:22.480Z,47.53
2023-05-12T12:28:22.956Z,47.91
2023-05-12T12:29:24.486Z,44.46
2023-05-12T12:30:22.338Z,44.88
2023-05-12T12:31:22.303Z,43.48
2023-05-12T12:32:22.219Z,44.48
2023-05-12T12:33:22.491Z,44.96
2023-05-12T12:34:22.966Z,45.78
2023-05-12T12:35:23.123Z,46.38
2023-05-12T12:36:21.980Z,44.08
2023-05-12T12:37:21.893Z,44.06
2023-05-12T12:38:21.855Z,43.88
2023-05-12T12:39:21.834Z,44.96
2023-05-12T12:40:22.640Z,45.16
2023-05-12T12:41:21.690Z,45.96
2023-05-12T12:42:21.559Z,44.66
2023-05-12T12:43:21.575Z,43.85
2023-05-12T12:44:21.436Z,44.46
2023-05-12T12:45:21.651Z,44.35
2023-05-12T12:46:21.664Z,44.46
2023-05-12T12:47:21.256Z,43.85
2023-05-12T12:48:21.245Z,44.78
2023-05-12T12:49:21.342Z,45.48
2023-05-12T12:50:21.329Z,45.56
2023-05-12T12:51:21.061Z,42.96
2023-05-12T12:52:22.507Z,42.85
2023-05-12T12:53:21.453Z,44.66